Time;durP1;ratioP1;P1;durP2;ratioP2;P2;SDS_P1;SDS_P2;PMS_P1;PMS_P2;Temp;Humidity;BMP_temperature;BMP_pressure;BME280_temperature;BME280_humidity;BME280_pressure;Samples;Min_cycle;Max_cycle;Signal;HPM_P1;HPM_P2
2022/05/04 00:00:12;;;;;;;7.10;6.50;;;;;;;14.31;70.81;100317.78;4973113;28;20491;-72
2022/05/04 00:02:38;;;;;;;7.10;6.43;;;;;;;14.26;70.88;100322.41;4972988;28;20460;-72
2022/05/04 00:05:05;;;;;;;6.78;6.07;;;;;;;14.22;71.35;100316.69;4972765;28;20982;-72
2022/05/04 00:07:30;;;;;;;7.10;6.50;;;;;;;14.18;71.56;100322.94;4972886;28;20400;-72
2022/05/04 00:09:57;;;;;;;7.27;6.60;;;;;;;14.20;71.31;100318.03;4963783;28;20769;-72
2022/05/04 00:12:23;;;;;;;7.35;6.75;;;;;;;14.20;71.54;100318.84;4972521;28;20404;-72
2022/05/04 00:14:48;;;;;;;7.95;7.18;;;;;;;14.20;71.56;100310.66;4972828;28;20735;-72
2022/05/04 00:17:13;;;;;;;8.13;7.40;;;;;;;14.21;71.47;100309.59;4955624;28;20403;-72
2022/05/04 00:19:39;;;;;;;8.48;7.78;;;;;;;14.22;71.85;100316.69;4972778;28;20401;-72
2022/05/04 00:22:04;;;;;;;7.07;6.57;;;;;;;14.21;71.58;100315.03;4971514;28;20418;-72
2022/05/04 00:24:30;;;;;;;8.57;6.57;;;;;;;14.17;71.73;100313.13;4972742;28;20424;-72
2022/05/04 00:26:55;;;;;;;8.30;7.10;;;;;;;14.07;71.37;100310.38;4972803;28;20414;-72
2022/05/04 00:29:20;;;;;;;6.90;6.40;;;;;;;13.98;71.40;100313.66;4972581;28;20427;-72
2022/05/04 00:31:46;;;;;;;7.60;6.97;;;;;;;13.95;71.03;100311.47;4972731;28;20442;-72
2022/05/04 00:34:11;;;;;;;7.67;7.07;;;;;;;13.97;71.04;100311.19;4972754;28;20776;-72
2022/05/04 00:36:36;;;;;;;7.10;6.30;;;;;;;13.93;71.23;100308.19;4972046;28;20539;-72
2022/05/04 00:39:01;;;;;;;7.17;6.53;;;;;;;13.90;71.27;100307.91;4972794;28;20957;-72
2022/05/04 00:41:27;;;;;;;7.27;6.67;;;;;;;13.90;71.57;100303.28;4972716;28;20400;-72
2022/05/04 00:43:53;;;;;;;7.43;6.63;;;;;;;13.91;71.71;100301.38;4960085;28;20433;-72
2022/05/04 00:46:20;;;;;;;6.82;6.13;;;;;;;13.90;71.82;100310.63;4961606;28;20401;-72
2022/05/04 00:48:45;;;;;;;7.30;6.60;;;;;;;13.88;71.76;100301.94;4972716;28;20420;-72
2022/05/04 00:51:11;;;;;;;7.23;6.50;;;;;;;13.87;71.66;100306.56;4972025;28;20921;-72
2022/05/04 00:53:37;;;;;;;6.45;6.03;;;;;;;13.85;71.66;100314.19;4972801;28;20466;-72
2022/05/04 00:56:04;;;;;;;7.07;5.57;;;;;;;13.82;71.53;100313.91;4972693;28;20407;-72
2022/05/04 01:01:16;;;;;;;7.47;6.70;;;;;;;13.79;71.25;100312.53;4972659;28;20427;-72
2022/05/04 01:03:41;;;;;;;10.60;7.10;;;;;;;13.80;71.51;100311.44;4972169;28;20834;-72
2022/05/04 01:06:06;;;;;;;7.38;6.63;;;;;;;13.79;72.10;100311.72;4986111;28;20448;-72
2022/05/04 01:08:32;;;;;;;8.00;7.30;;;;;;;13.78;72.24;100312.81;4972392;28;20451;-72
2022/05/04 01:10:57;;;;;;;10.23;8.90;;;;;;;13.78;72.10;100313.63;4972171;28;20427;-72
2022/05/04 01:13:22;;;;;;;8.77;7.97;;;;;;;13.77;71.79;100316.59;4972103;28;20397;-72
2022/05/04 01:15:49;;;;;;;8.17;7.47;;;;;;;13.76;71.72;100310.38;4972290;28;20403;-72
2022/05/04 01:18:14;;;;;;;7.80;7.07;;;;;;;13.75;71.73;100318.78;4972104;28;20397;-72
2022/05/04 01:20:39;;;;;;;6.67;6.07;;;;;;;13.72;71.17;100313.88;4971342;28;20421;-72
2022/05/04 01:23:05;;;;;;;6.75;5.88;;;;;;;13.69;70.74;100315.25;4972213;28;20392;-72
2022/05/04 01:25:30;;;;;;;5.43;5.03;;;;;;;13.64;70.44;100317.94;4972206;28;20779;-72
2022/05/04 01:27:55;;;;;;;5.57;5.07;;;;;;;13.58;69.87;100319.00;4972297;28;20401;-72
2022/05/04 01:30:21;;;;;;;5.70;5.20;;;;;;;13.53;70.26;100314.34;4972325;28;20400;-72
2022/05/04 01:32:47;;;;;;;5.90;5.50;;;;;;;13.44;70.35;100304.25;4975138;28;20399;-72
2022/05/04 01:35:13;;;;;;;5.50;5.10;;;;;;;13.35;70.45;100298.53;4974784;28;20416;-72
2022/05/04 01:37:39;;;;;;;5.18;4.88;;;;;;;13.32;70.75;100306.41;4975615;28;20396;-72
2022/05/04 01:40:05;;;;;;;5.63;5.30;;;;;;;13.28;70.70;100300.66;4975572;28;20836;-72
2022/05/04 01:42:30;;;;;;;5.60;5.10;;;;;;;13.26;70.86;100296.59;4975565;28;20404;-72
2022/05/04 01:44:56;;;;;;;6.43;5.30;;;;;;;13.25;71.08;100308.56;4974804;28;20424;-72
2022/05/04 01:47:21;;;;;;;5.45;5.15;;;;;;;13.22;70.95;100304.47;4975067;28;20396;-72
2022/05/04 01:49:46;;;;;;;5.53;5.17;;;;;;;13.24;71.25;100305.00;4975445;28;20883;-72
2022/05/04 01:52:12;;;;;;;5.30;4.90;;;;;;;13.27;71.23;100309.91;4975084;28;20411;-72
2022/05/04 01:54:37;;;;;;;6.23;5.73;;;;;;;13.31;71.36;100307.47;4975541;28;20462;-72
2022/05/04 01:57:02;;;;;;;5.53;4.80;;;;;;;13.31;71.58;100311.03;4975431;28;20779;-72
2022/05/04 01:59:27;;;;;;;5.40;4.82;;;;;;;13.31;71.68;100316.47;4975261;28;20459;-72
2022/05/04 02:01:53;;;;;;;6.40;5.83;;;;;;;13.30;71.35;100312.13;4974029;28;20491;-72
2022/05/04 02:04:19;;;;;;;6.00;5.40;;;;;;;13.29;71.66;100301.50;4975056;28;20430;-72
2022/05/04 02:06:45;;;;;;;5.65;4.93;;;;;;;13.25;71.77;100306.66;4975294;28;20802;-72
2022/05/04 02:09:11;;;;;;;5.22;4.82;;;;;;;13.22;71.51;100309.91;4974738;28;20422;-72
2022/05/04 02:11:37;;;;;;;5.40;4.60;;;;;;;13.23;71.70;100294.41;4975031;28;20396;-72
2022/05/04 02:14:03;;;;;;;5.90;5.40;;;;;;;13.22;71.50;100301.75;4974872;28;20415;-72
2022/05/04 02:16:29;;;;;;;5.30;4.85;;;;;;;13.22;71.57;100296.31;4974501;28;20766;-72
2022/05/04 02:18:55;;;;;;;5.22;4.88;;;;;;;13.22;71.55;100303.63;4974923;28;20384;-72
2022/05/04 02:21:20;;;;;;;6.00;5.38;;;;;;;13.22;71.09;100295.47;4974991;28;20417;-72
2022/05/04 02:23:45;;;;;;;5.27;4.87;;;;;;;13.20;71.24;100303.91;4974690;28;20412;-72
2022/05/04 02:26:11;;;;;;;5.10;4.70;;;;;;;13.19;71.72;100299.56;4974697;28;20416;-72
2022/05/04 02:28:36;;;;;;;4.50;4.30;;;;;;;13.16;71.58;100293.81;4973991;28;20886;-72
2022/05/04 02:31:02;;;;;;;4.68;4.43;;;;;;;13.14;71.13;100299.50;4974566;28;20411;-72
2022/05/04 02:33:27;;;;;;;4.87;4.63;;;;;;;13.11;70.70;100310.94;4974609;28;20774;-72
2022/05/04 02:38:36;;;;;;;5.03;4.72;;;;;;;13.01;70.99;100308.94;4974544;28;20739;-72
2022/05/04 02:41:02;;;;;;;4.72;4.28;;;;;;;12.98;70.93;100305.94;4974494;28;20420;-72
2022/05/04 02:43:28;;;;;;;5.20;4.80;;;;;;;12.95;70.99;100309.19;4972085;28;20431;-72
2022/05/04 02:45:54;;;;;;;5.40;4.97;;;;;;;12.91;71.02;100306.19;4974413;28;20408;-72
2022/05/04 02:48:19;;;;;;;6.30;4.80;;;;;;;12.88;71.24;100308.59;4941197;28;20425;-72
2022/05/04 02:50:44;;;;;;;7.90;5.00;;;;;;;12.87;71.03;100313.25;4974130;28;20907;-72
2022/05/04 02:53:10;;;;;;;7.53;4.97;;;;;;;12.89;70.86;100311.06;4974114;28;20398;-72
2022/05/04 02:55:35;;;;;;;5.50;5.00;;;;;;;12.89;71.25;100321.13;4974298;28;20403;-72
2022/05/04 02:58:01;;;;;;;5.57;5.03;;;;;;;12.84;71.24;100316.47;4973202;28;20415;-72
2022/05/04 03:07:09;;;;;;;7.63;6.43;;;;;;;12.70;71.37;100317.22;4963302;28;20462;-72
2022/05/04 03:09:34;;;;;;;7.25;6.65;;;;;;;12.68;71.59;100322.91;4973872;28;20424;-72
2022/05/04 03:12:01;;;;;;;6.97;6.37;;;;;;;12.67;71.67;100321.28;4972261;28;20415;-72
2022/05/04 03:14:28;;;;;;;6.00;5.57;;;;;;;12.72;71.49;100324.00;4973288;28;20396;-72
2022/05/04 03:16:54;;;;;;;6.65;6.05;;;;;;;12.75;71.66;100317.22;4962965;28;20388;-72
2022/05/04 03:19:23;;;;;;;6.85;6.32;;;;;;;12.75;71.68;100312.59;4973523;28;20867;-72
2022/05/04 03:21:49;;;;;;;6.55;5.85;;;;;;;12.79;71.97;100316.44;4971716;28;20891;-72
2022/05/04 03:24:15;;;;;;;6.85;6.25;;;;;;;12.80;71.87;100322.72;4973755;28;20439;-72
2022/05/04 03:26:41;;;;;;;9.55;6.45;;;;;;;12.77;71.94;100315.91;4973669;28;20784;-72
2022/05/04 03:29:06;;;;;;;6.18;5.68;;;;;;;12.77;72.00;100321.34;4973580;28;20431;-72
2022/05/04 03:31:32;;;;;;;5.90;5.40;;;;;;;12.79;71.84;100319.16;4973544;28;20403;-72
2022/05/04 03:33:57;;;;;;;5.27;4.77;;;;;;;12.78;71.72;100322.97;4973554;28;20400;-72
2022/05/04 03:36:22;;;;;;;6.13;4.37;;;;;;;12.75;71.65;100320.78;4972655;28;20402;-73
2022/05/04 03:38:48;;;;;;;5.63;5.13;;;;;;;12.72;71.45;100317.75;4964834;28;20443;-72
2022/05/04 03:41:13;;;;;;;4.97;4.63;;;;;;;12.66;71.37;100325.06;4973361;28;20451;-72
2022/05/04 03:43:39;;;;;;;4.82;4.43;;;;;;;12.66;71.20;100326.97;4973226;28;20413;-72
2022/05/04 03:46:20;;;;;;;4.50;4.20;;;;;;;12.63;71.25;100316.63;4973193;28;20404;-72
2022/05/04 03:48:48;;;;;;;4.47;4.28;;;;;;;12.62;71.53;100326.66;4973348;28;20878;-72
2022/05/04 03:51:14;;;;;;;4.45;4.15;;;;;;;12.61;71.39;100322.31;4971024;28;20421;-72
2022/05/04 03:53:40;;;;;;;5.70;4.43;;;;;;;12.63;71.48;100324.78;4972962;28;20411;-72
2022/05/04 03:56:05;;;;;;;7.57;4.57;;;;;;;12.62;71.61;100321.22;4972760;28;20426;-72
2022/05/04 03:58:31;;;;;;;5.72;4.30;;;;;;;12.60;71.72;100320.69;4973152;28;20490;-72
2022/05/04 04:00:56;;;;;;;4.33;4.10;;;;;;;12.60;71.57;100331.56;4973164;28;20393;-72
2022/05/04 04:03:21;;;;;;;6.65;4.53;;;;;;;12.61;71.76;100326.94;4972144;28;20730;-72
2022/05/04 04:05:47;;;;;;;4.43;4.17;;;;;;;12.62;71.40;100329.38;4972318;28;20416;-72
2022/05/04 04:08:12;;;;;;;7.20;4.33;;;;;;;12.66;71.26;100329.69;4972920;28;20436;-72
2022/05/04 04:10:37;;;;;;;4.70;4.37;;;;;;;12.68;71.48;100332.97;4972749;28;20416;-72
2022/05/04 04:13:04;;;;;;;4.73;4.10;;;;;;;12.66;71.62;100335.13;4971480;28;20426;-72
2022/05/04 04:15:29;;;;;;;5.28;4.57;;;;;;;12.67;72.07;100334.88;4972281;28;20419;-72
2022/05/04 04:17:54;;;;;;;4.37;4.03;;;;;;;12.70;71.95;100341.69;4972904;28;20901;-72
2022/05/04 04:23:04;;;;;;;5.00;4.50;;;;;;;12.76;71.63;100338.72;4971824;28;20418;-72
2022/05/04 04:25:29;;;;;;;4.80;4.30;;;;;;;12.78;71.86;100335.72;4972558;28;20781;-72
2022/05/04 04:27:55;;;;;;;5.47;4.37;;;;;;;12.79;71.74;100345.53;4972558;28;20388;-72
2022/05/04 04:30:20;;;;;;;4.60;3.63;;;;;;;12.78;71.74;100344.72;4967958;28;20400;-72
2022/05/04 04:32:45;;;;;;;3.77;3.53;;;;;;;12.79;71.87;100350.97;4972798;28;20388;-72
2022/05/04 04:35:11;;;;;;;4.80;4.43;;;;;;;12.77;71.92;100350.44;4971571;28;20420;-72
2022/05/04 04:37:36;;;;;;;4.05;3.75;;;;;;;12.75;72.13;100350.69;4972503;28;20419;-72
2022/05/04 04:40:02;;;;;;;3.80;3.60;;;;;;;12.75;71.66;100352.56;4972430;28;20411;-72
2022/05/04 04:42:27;;;;;;;5.05;4.25;;;;;;;12.74;71.82;100353.69;4970868;28;20405;-72
2022/05/04 04:44:52;;;;;;;5.20;4.23;;;;;;;12.74;71.68;100356.41;4972115;28;20420;-72
2022/05/04 04:47:17;;;;;;;4.77;4.47;;;;;;;12.76;71.30;100355.03;4971128;28;20424;-72
2022/05/04 04:49:43;;;;;;;4.97;4.57;;;;;;;12.78;71.57;100358.31;4971876;28;20404;-72
2022/05/04 04:52:08;;;;;;;5.50;4.03;;;;;;;12.80;71.71;100360.78;4971441;28;20547;-72
2022/05/04 04:54:33;;;;;;;6.30;4.50;;;;;;;12.80;71.53;100363.50;4969099;28;20420;-72
2022/05/04 04:56:58;;;;;;;5.10;3.87;;;;;;;12.81;71.84;100359.72;4969785;28;20412;-72
2022/05/04 04:59:24;;;;;;;4.70;4.20;;;;;;;12.84;71.71;100361.91;4972004;28;20415;-71
2022/05/04 05:01:49;;;;;;;4.70;4.37;;;;;;;12.83;71.63;100363.81;4970006;28;20416;-72
2022/05/04 05:24:25;;;;;;;6.30;5.70;;;;;;;13.08;72.24;100370.47;3980290;28;20420;-72
2022/05/04 05:26:51;;;;;;;6.07;5.50;;;;;;;13.06;72.40;100378.91;4974170;28;20755;-72
2022/05/04 05:29:16;;;;;;;5.70;5.20;;;;;;;12.99;72.63;100378.31;4975762;28;20475;-72
2022/05/04 05:31:41;;;;;;;7.20;5.93;;;;;;;12.98;72.77;100373.94;4973604;28;20416;-72
2022/05/04 05:34:07;;;;;;;5.77;5.27;;;;;;;13.02;72.68;100378.59;4953411;28;21011;-72
2022/05/04 05:36:32;;;;;;;7.00;6.23;;;;;;;13.03;73.18;100379.44;4970090;28;20424;-72
2022/05/04 05:38:57;;;;;;;7.00;6.37;;;;;;;13.05;73.19;100387.31;4957637;28;20926;-72
2022/05/04 05:41:23;;;;;;;8.07;6.70;;;;;;;13.02;73.40;100383.22;4962001;28;20418;-72
2022/05/04 05:43:49;;;;;;;5.75;5.35;;;;;;;13.00;73.25;100383.50;4973436;28;20903;-73
2022/05/04 05:46:15;;;;;;;7.63;5.57;;;;;;;13.05;73.31;100387.31;4970002;28;20446;-72
2022/05/04 05:48:40;;;;;;;5.85;5.35;;;;;;;13.09;73.40;100386.56;4972159;28;20488;-71
2022/05/04 05:51:06;;;;;;;5.17;4.77;;;;;;;13.11;73.45;100389.00;4968699;28;20412;-72
2022/05/04 05:53:31;;;;;;;5.40;5.00;;;;;;;13.15;73.14;100388.22;4967276;28;20428;-72
2022/05/04 05:55:57;;;;;;;6.15;5.05;;;;;;;13.12;73.22;100394.19;4973882;28;20411;-72
2022/05/04 05:58:23;;;;;;;5.53;5.03;;;;;;;13.15;73.17;100399.13;4974385;28;20495;-73
2022/05/04 06:00:49;;;;;;;6.17;5.70;;;;;;;13.21;73.22;100395.34;4971217;28;20467;-72
2022/05/04 06:03:15;;;;;;;5.20;4.70;;;;;;;13.24;73.05;100393.97;4973710;28;20953;-72
2022/05/04 06:05:41;;;;;;;4.83;4.40;;;;;;;13.28;72.95;100393.19;4974793;28;20432;-72
2022/05/04 06:08:09;;;;;;;5.47;4.97;;;;;;;13.32;73.02;100396.22;4974073;28;20423;-73
2022/05/04 06:10:35;;;;;;;7.93;4.85;;;;;;;13.41;72.58;100394.63;4973266;28;20412;-72
2022/05/04 06:13:00;;;;;;;4.55;4.25;;;;;;;13.47;72.23;100391.66;4972491;28;20443;-72
2022/05/04 06:15:26;;;;;;;6.00;4.23;;;;;;;13.48;72.14;100390.59;4973255;28;20408;-73
2022/05/04 06:17:51;;;;;;;4.68;4.20;;;;;;;13.53;72.17;100392.53;4974601;28;20479;-71
2022/05/04 06:20:17;;;;;;;4.83;4.30;;;;;;;13.61;72.27;100399.34;4968042;28;20807;-71
2022/05/04 06:22:42;;;;;;;4.90;4.40;;;;;;;13.62;72.19;100385.47;4974022;28;20420;-71
2022/05/04 06:25:08;;;;;;;5.03;4.67;;;;;;;13.69;72.54;100398.84;4974394;28;20452;-71
2022/05/04 06:27:33;;;;;;;4.60;3.90;;;;;;;13.75;72.41;100393.16;4974539;28;20411;-71
2022/05/04 06:35:26;;;;;;;6.07;5.57;;;;;;;13.96;72.07;100402.22;4974630;28;20399;-71
2022/05/04 06:37:53;;;;;;;6.47;5.97;;;;;;;14.02;72.51;100401.13;4973770;28;20396;-71
2022/05/04 06:40:18;;;;;;;6.05;5.55;;;;;;;14.07;72.09;100398.41;4974185;28;20419;-71
2022/05/04 06:42:44;;;;;;;6.30;5.77;;;;;;;14.10;72.03;100402.50;4973245;28;20458;-72
2022/05/04 06:45:10;;;;;;;6.63;5.93;;;;;;;14.13;72.20;100397.31;4974715;28;20419;-71
2022/05/04 06:47:35;;;;;;;7.18;6.47;;;;;;;14.21;72.71;100404.16;4974728;28;20747;-71
2022/05/04 06:50:03;;;;;;;7.83;6.93;;;;;;;14.30;72.58;100408.81;4974143;28;20508;-71
2022/05/04 06:52:30;;;;;;;7.82;7.13;;;;;;;14.38;72.32;100415.66;4973060;28;20416;-71
2022/05/04 06:54:55;;;;;;;7.90;7.10;;;;;;;14.42;72.63;100408.59;4974130;28;20906;-71
2022/05/04 06:57:23;;;;;;;8.93;8.07;;;;;;;14.46;72.88;100424.13;4974093;28;20494;-71
2022/05/04 06:59:48;;;;;;;8.55;7.75;;;;;;;14.47;72.10;100419.50;4949657;28;20418;-71
2022/05/04 07:02:14;;;;;;;8.02;7.10;;;;;;;14.48;72.33;100424.69;4986197;28;20425;-71
2022/05/04 07:04:39;;;;;;;10.35;9.38;;;;;;;14.51;71.20;100420.59;4973868;28;20416;-71
2022/05/04 07:07:05;;;;;;;10.57;8.70;;;;;;;14.50;69.91;100416.22;4973756;28;20451;-71
2022/05/04 07:09:30;;;;;;;10.20;9.20;;;;;;;14.55;68.92;100425.22;4973672;28;20435;-71
2022/05/04 07:11:55;;;;;;;10.27;9.20;;;;;;;14.60;68.62;100420.84;4973092;28;20432;-71
2022/05/04 07:14:20;;;;;;;9.53;8.70;;;;;;;14.63;68.97;100426.59;4973792;28;20400;-71
2022/05/04 07:16:47;;;;;;;9.30;8.40;;;;;;;14.68;68.79;100425.78;4956253;28;20392;-71
2022/05/04 07:19:13;;;;;;;9.77;8.95;;;;;;;14.73;69.20;100428.50;4973518;28;20403;-71
2022/05/04 07:21:39;;;;;;;10.30;9.07;;;;;;;14.78;68.68;100431.25;4973614;28;20424;-71
2022/05/04 07:24:05;;;;;;;12.57;9.77;;;;;;;14.81;68.45;100428.78;4972992;28;20455;-71
2022/05/04 07:26:31;;;;;;;11.17;10.07;;;;;;;14.85;67.81;100431.78;4973457;28;20485;-71
2022/05/04 07:28:56;;;;;;;10.97;9.93;;;;;;;14.85;66.60;100431.78;4972886;28;20834;-71
2022/05/04 07:31:21;;;;;;;11.23;10.13;;;;;;;14.86;66.13;100431.50;4972946;28;20427;-71
2022/05/04 07:33:47;;;;;;;10.80;9.65;;;;;;;14.90;66.07;100438.06;4973311;28;20483;-71
2022/05/04 07:36:12;;;;;;;10.83;9.70;;;;;;;14.95;66.10;100432.59;4973572;28;20396;-71
2022/05/04 07:38:37;;;;;;;19.03;10.60;;;;;;;15.01;66.49;100431.50;4973235;28;20412;-71
2022/05/04 07:43:46;;;;;;;11.57;10.50;;;;;;;15.06;65.19;100420.56;4969681;28;20486;-71
2022/05/04 07:46:11;;;;;;;11.20;10.10;;;;;;;15.10;64.93;100428.22;4988222;28;20986;-71
2022/05/04 07:48:37;;;;;;;12.90;10.63;;;;;;;15.18;64.91;100427.66;4972747;28;20404;-71
2022/05/04 07:51:02;;;;;;;11.60;10.37;;;;;;;15.27;64.92;100431.47;4987982;28;20412;-71
2022/05/04 07:53:27;;;;;;;10.82;9.88;;;;;;;15.37;65.45;100426.81;4987036;28;20521;-71
2022/05/04 07:55:53;;;;;;;12.43;10.80;;;;;;;15.48;65.35;100433.06;4972429;28;20424;-71
2022/05/04 07:58:18;;;;;;;11.45;10.32;;;;;;;15.60;64.67;100433.59;4970992;28;20411;-71
2022/05/04 08:06:12;;;;;;;11.87;10.60;;;;;;;15.99;63.57;100441.88;4972781;28;20826;-71
2022/05/04 08:08:38;;;;;;;11.40;10.27;;;;;;;16.09;62.58;100444.56;4970263;28;20420;-71
2022/05/04 08:11:03;;;;;;;11.95;10.73;;;;;;;16.19;62.75;100443.69;4957745;28;20442;-71
2022/05/04 08:13:29;;;;;;;11.40;10.40;;;;;;;16.25;62.87;100450.75;4972922;28;20785;-71
2022/05/04 08:15:54;;;;;;;12.63;11.52;;;;;;;16.27;62.76;100443.91;4969212;28;20393;-71
2022/05/04 08:18:20;;;;;;;12.27;11.17;;;;;;;16.32;63.23;100446.63;4972202;28;20462;-71
2022/05/04 08:20:46;;;;;;;13.10;11.15;;;;;;;16.32;62.93;100443.06;4958363;28;20740;-71
2022/05/04 08:23:12;;;;;;;14.73;11.40;;;;;;;16.33;62.96;100448.28;4972315;28;20411;-72
2022/05/04 08:25:38;;;;;;;12.00;10.90;;;;;;;16.33;62.37;100451.00;4972568;28;20556;-71
2022/05/04 08:28:04;;;;;;;12.43;11.33;;;;;;;16.33;62.41;100452.91;4972096;28;20424;-71
2022/05/04 08:30:29;;;;;;;12.48;11.27;;;;;;;16.32;62.22;100456.75;4972776;28;20404;-71
2022/05/04 08:32:54;;;;;;;13.10;11.07;;;;;;;16.32;62.08;100449.38;4967970;28;20947;-71
2022/05/04 08:35:20;;;;;;;11.33;10.27;;;;;;;16.33;63.16;100453.75;4969287;28;20463;-71
2022/05/04 08:37:46;;;;;;;13.43;11.83;;;;;;;16.34;63.28;100454.53;4966671;28;20912;-71
2022/05/04 08:40:12;;;;;;;12.40;10.65;;;;;;;16.33;62.00;100453.75;4977452;28;20761;-71
2022/05/04 08:42:46;;;;;;;12.15;10.95;;;;;;;16.37;61.99;100453.97;4972131;28;20403;-71
2022/05/04 08:45:12;;;;;;;12.63;11.43;;;;;;;16.36;61.43;100450.44;4976024;28;20918;-72
2022/05/04 08:47:40;;;;;;;12.40;11.18;;;;;;;16.34;61.94;100443.59;4975481;28;20431;-71
2022/05/04 08:50:14;;;;;;;12.23;11.13;;;;;;;16.39;62.45;100455.34;4976167;28;20867;-72
2022/05/04 08:52:44;;;;;;;13.05;11.73;;;;;;;16.48;62.18;100450.91;4961275;28;20399;-71
2022/05/04 08:55:10;;;;;;;12.73;11.73;;;;;;;16.56;61.96;100444.03;4987966;28;20488;-71
2022/05/04 08:57:36;;;;;;;15.60;12.20;;;;;;;16.63;61.96;100446.47;4968385;28;20537;-71
2022/05/04 09:00:02;;;;;;;12.40;11.30;;;;;;;16.65;61.58;100452.44;4973368;28;20400;-71
2022/05/04 09:02:27;;;;;;;12.13;10.93;;;;;;;16.67;60.29;100451.06;4976292;28;20436;-72
2022/05/04 09:04:53;;;;;;;10.93;10.02;;;;;;;16.71;61.12;100441.19;4958568;28;20565;-72
2022/05/04 09:07:25;;;;;;;12.10;10.97;;;;;;;16.78;60.70;100441.69;4966116;28;20418;-71
2022/05/04 09:09:53;;;;;;;12.02;10.93;;;;;;;16.83;60.63;100441.63;4975918;28;20418;-72
2022/05/04 09:12:18;;;;;;;12.27;11.07;;;;;;;16.89;60.36;100445.94;4958819;28;20799;-71
2022/05/04 09:14:44;;;;;;;11.38;10.25;;;;;;;16.99;60.55;100437.66;4975839;28;20400;-71
2022/05/04 09:17:13;;;;;;;12.07;10.85;;;;;;;17.10;60.35;100439.19;4975013;28;20424;-72
2022/05/04 09:20:44;;;;;;;11.65;10.45;;;;;;;17.15;59.85;100443.00;4990597;28;20388;-71
2022/05/04 09:22:27;;;;;;;11.40;10.32;;;;;;;17.18;58.66;100439.69;4963096;28;20863;-71
2022/05/04 09:24:52;;;;;;;11.27;10.33;;;;;;;17.27;59.09;100440.69;4958302;28;20427;-71
2022/05/04 09:27:17;;;;;;;12.37;11.17;;;;;;;17.40;58.06;100432.59;4974826;28;20774;-70
2022/05/04 09:29:42;;;;;;;11.70;10.55;;;;;;;17.65;57.34;100433.47;4975753;28;20724;-71
2022/05/04 09:32:15;;;;;;;12.53;10.80;;;;;;;17.93;56.55;100446.25;4975697;28;20536;-71
2022/05/04 09:34:41;;;;;;;11.13;10.13;;;;;;;18.00;56.20;100431.09;4975778;28;20412;-71
2022/05/04 09:45:37;;;;;;;10.98;9.48;;;;;;;19.18;56.07;100435.28;4974811;28;20427;-72
2022/05/04 09:48:03;;;;;;;13.93;10.20;;;;;;;19.46;56.03;100432.63;4974349;28;20574;-71
2022/05/04 09:50:28;;;;;;;9.07;8.32;;;;;;;19.66;55.12;100426.69;4974970;28;20408;-71
2022/05/04 09:52:56;;;;;;;9.33;8.53;;;;;;;19.68;54.86;100430.78;4975010;28;20451;-71
2022/05/04 09:55:25;;;;;;;10.13;8.77;;;;;;;20.44;53.35;100433.84;4975288;28;20392;-71
2022/05/04 09:57:55;;;;;;;10.25;9.30;;;;;;;21.17;50.12;100434.22;4975308;28;20388;-71
2022/05/04 10:00:22;;;;;;;10.80;9.95;;;;;;;21.01;50.48;100429.44;4972341;28;20423;-72
2022/05/04 10:02:48;;;;;;;11.15;9.20;;;;;;;20.88;49.88;100425.59;4974655;28;20416;-72
2022/05/04 10:05:15;;;;;;;10.90;9.90;;;;;;;20.90;49.44;100428.06;4974825;28;20949;-72
2022/05/04 10:07:41;;;;;;;10.43;9.38;;;;;;;20.92;50.55;100432.09;4986542;28;20428;-72
2022/05/04 10:10:09;;;;;;;11.75;9.82;;;;;;;21.38;49.81;100425.41;4974730;28;20415;-71
2022/05/04 10:12:39;;;;;;;10.20;9.20;;;;;;;21.66;49.26;100422.16;4975150;28;20883;-72
2022/05/04 10:15:12;;;;;;;10.43;9.40;;;;;;;22.65;47.44;100421.34;4974731;28;20420;-71
2022/05/04 10:17:46;;;;;;;10.68;9.68;;;;;;;23.80;43.39;100417.66;4974274;28;20751;-72
2022/05/04 10:20:20;;;;;;;10.88;9.75;;;;;;;24.59;42.48;100414.00;4974493;28;20536;-72
2022/05/04 10:23:02;;;;;;;10.35;9.50;;;;;;;24.56;41.92;100409.16;4967541;28;20416;-71
2022/05/04 10:25:32;;;;;;;7.05;6.10;;;;;;;25.01;41.97;100412.00;4965554;28;20424;-72
2022/05/04 10:28:10;;;;;;;7.33;6.63;;;;;;;25.55;41.94;100396.06;4973640;28;20443;-72
2022/05/04 10:30:36;;;;;;;6.82;6.25;;;;;;;26.06;40.95;100403.66;4971728;28;20471;-72
2022/05/04 10:33:05;;;;;;;6.80;6.15;;;;;;;26.06;41.24;100400.06;4951499;29;20430;-72
2022/05/04 10:35:43;;;;;;;6.60;6.00;;;;;;;26.40;40.85;100395.97;4963835;28;20439;-72
2022/05/04 10:38:30;;;;;;;6.93;6.32;;;;;;;26.94;38.37;100396.38;4972433;28;20408;-72
2022/05/04 10:41:00;;;;;;;6.75;6.05;;;;;;;25.97;39.77;100393.84;4952812;28;20447;-72
2022/05/04 10:43:50;;;;;;;6.97;6.10;;;;;;;24.62;42.46;100394.75;4974403;28;20400;-72
2022/05/04 10:46:22;;;;;;;7.07;6.00;;;;;;;23.93;45.19;100394.44;4973772;28;20439;-72
2022/05/04 10:48:56;;;;;;;7.63;6.50;;;;;;;24.80;43.83;100389.84;4973388;28;20415;-72
2022/05/04 10:51:24;;;;;;;6.87;6.20;;;;;;;25.25;42.86;100384.34;4973540;28;20427;-72
2022/05/04 10:54:08;;;;;;;6.72;6.13;;;;;;;25.88;41.12;100387.63;4973450;28;20415;-72
2022/05/04 10:56:41;;;;;;;7.82;7.05;;;;;;;26.09;40.08;100377.16;4970009;28;20421;-72
2022/05/04 10:59:07;;;;;;;7.60;6.38;;;;;;;26.80;38.35;100375.31;4973193;28;20423;-72
2022/05/04 11:01:34;;;;;;;8.30;7.50;;;;;;;27.25;36.97;100382.50;4972960;28;20415;-72
2022/05/04 11:04:13;;;;;;;9.00;7.57;;;;;;;27.40;36.51;100375.31;4972956;28;20408;-72
2022/05/04 11:06:52;;;;;;;8.68;7.88;;;;;;;27.69;35.94;100369.31;4974038;28;20895;-72
2022/05/04 11:09:20;;;;;;;8.40;7.70;;;;;;;27.99;35.11;100372.38;4972506;28;20779;-72
2022/05/04 11:11:56;;;;;;;8.43;7.72;;;;;;;27.64;34.92;100372.34;4973674;28;20950;-72
2022/05/04 11:14:22;;;;;;;9.27;8.43;;;;;;;27.43;35.28;100364.28;4965481;28;20443;-72
2022/05/04 11:16:50;;;;;;;10.45;7.93;;;;;;;27.20;36.85;100358.50;4972783;28;20402;-73
2022/05/04 11:19:16;;;;;;;9.77;7.82;;;;;;;27.34;37.15;100358.06;4963417;28;21933;-73
2022/05/04 11:21:41;;;;;;;8.47;6.67;;;;;;;27.59;37.37;100356.75;4973204;28;20525;-73
2022/05/04 11:24:09;;;;;;;9.32;7.30;;;;;;;27.71;36.68;100350.25;4972207;28;20443;-70
2022/05/04 11:26:40;;;;;;;8.27;7.53;;;;;;;27.41;37.27;100349.09;4971342;28;20412;-70
2022/05/04 11:29:10;;;;;;;8.55;7.75;;;;;;;26.80;38.08;100344.75;4970396;28;20423;-70
2022/05/04 11:31:36;;;;;;;8.18;7.38;;;;;;;26.73;38.75;100350.09;4968704;28;20533;-70
2022/05/04 11:34:02;;;;;;;12.35;7.60;;;;;;;27.07;37.56;100350.63;4970294;28;20481;-70
2022/05/04 11:36:27;;;;;;;8.50;7.70;;;;;;;27.06;37.42;100337.88;4972705;28;20424;-70
2022/05/04 11:38:53;;;;;;;8.85;6.10;;;;;;;27.20;37.81;100332.69;4973205;28;20443;-71
2022/05/04 11:41:19;;;;;;;7.40;6.80;;;;;;;27.11;38.35;100337.59;4971484;28;20499;-70
2022/05/04 11:43:47;;;;;;;6.57;5.88;;;;;;;27.16;38.25;100324.25;4975862;28;20419;-70
2022/05/04 11:46:13;;;;;;;5.97;5.40;;;;;;;27.32;38.11;100327.84;4971138;28;20415;-70
2022/05/04 11:48:43;;;;;;;6.80;5.90;;;;;;;27.18;37.57;100329.44;4972032;28;20412;-71
2022/05/04 11:51:14;;;;;;;6.85;6.18;;;;;;;26.66;38.23;100324.88;4983482;28;20465;-70
2022/05/04 11:53:40;;;;;;;5.93;5.45;;;;;;;27.18;38.87;100324.69;4972696;28;20404;-70
2022/05/04 11:56:06;;;;;;;5.70;5.20;;;;;;;27.46;35.88;100319.06;4973390;28;20397;-71
2022/05/04 11:58:33;;;;;;;7.32;6.10;;;;;;;27.47;35.52;100329.00;4971559;28;20389;-71
2022/05/04 12:01:00;;;;;;;6.78;6.00;;;;;;;27.60;37.43;100324.94;4972649;28;20483;-71
2022/05/04 12:03:28;;;;;;;9.07;6.18;;;;;;;27.83;37.43;100325.88;4972988;28;20400;-71
2022/05/04 12:05:54;;;;;;;6.43;5.50;;;;;;;28.07;37.40;100324.03;4972712;28;20424;-71
2022/05/04 12:08:21;;;;;;;6.07;5.47;;;;;;;28.18;36.81;100336.22;4972971;28;20396;-71
2022/05/04 12:10:51;;;;;;;6.15;5.53;;;;;;;28.19;36.97;100319.13;4972087;28;20427;-71
2022/05/04 12:13:25;;;;;;;5.50;4.70;;;;;;;28.50;36.45;100323.75;4973045;28;20412;-71
2022/05/04 12:15:54;;;;;;;6.00;5.07;;;;;;;28.58;36.25;100317.16;4972533;28;20397;-71